sensor_id;sensor_type;location;lat;lon;timestamp;temperature;humidity
65203;HTU21D;51788;45.124;38.966;2024-02-04T00:02:03;5.70;84.54
65203;HTU21D;51788;45.124;38.966;2024-02-04T00:04:29;5.72;84.39
65203;HTU21D;51788;45.124;38.966;2024-02-04T00:06:57;5.80;84.23
65203;HTU21D;51788;45.124;38.966;2024-02-04T00:09:23;5.85;83.91
65203;HTU21D;51788;45.124;38.966;2024-02-04T00:11:49;5.87;83.92
65203;HTU21D;51788;45.124;38.966;2024-02-04T00:14:15;5.95;83.71
65203;HTU21D;51788;45.124;38.966;2024-02-04T00:16:41;6.02;83.43
65203;HTU21D;51788;45.124;38.966;2024-02-04T00:19:07;6.04;83.40
65203;HTU21D;51788;45.124;38.966;2024-02-04T00:21:34;6.04;83.39
65203;HTU21D;51788;45.124;38.966;2024-02-04T00:24:00;6.02;83.46
65203;HTU21D;51788;45.124;38.966;2024-02-04T00:26:26;6.05;83.53
65203;HTU21D;51788;45.124;38.966;2024-02-04T00:28:52;6.02;83.55
65203;HTU21D;51788;45.124;38.966;2024-02-04T00:31:18;6.04;83.58
65203;HTU21D;51788;45.124;38.966;2024-02-04T00:33:44;6.04;83.58
65203;HTU21D;51788;45.124;38.966;2024-02-04T00:36:10;6.05;83.46
65203;HTU21D;51788;45.124;38.966;2024-02-04T00:38:36;6.09;83.37
65203;HTU21D;51788;45.124;38.966;2024-02-04T00:41:02;6.09;83.39
65203;HTU21D;51788;45.124;38.966;2024-02-04T00:43:29;6.07;83.44
65203;HTU21D;51788;45.124;38.966;2024-02-04T00:45:55;6.09;83.43
65203;HTU21D;51788;45.124;38.966;2024-02-04T00:48:22;6.09;83.39
65203;HTU21D;51788;45.124;38.966;2024-02-04T00:50:48;6.10;83.37
65203;HTU21D;51788;45.124;38.966;2024-02-04T00:53:15;6.12;83.28
65203;HTU21D;51788;45.124;38.966;2024-02-04T00:55:41;6.11;83.16
65203;HTU21D;51788;45.124;38.966;2024-02-04T00:58:07;6.11;83.16
65203;HTU21D;51788;45.124;38.966;2024-02-04T01:00:32;6.11;83.20
65203;HTU21D;51788;45.124;38.966;2024-02-04T01:02:58;6.12;83.14
65203;HTU21D;51788;45.124;38.966;2024-02-04T01:05:24;6.12;83.11
65203;HTU21D;51788;45.124;38.966;2024-02-04T01:07:50;6.14;82.97
65203;HTU21D;51788;45.124;38.966;2024-02-04T01:10:16;6.15;82.94
65203;HTU21D;51788;45.124;38.966;2024-02-04T01:12:42;6.16;82.93
65203;HTU21D;51788;45.124;38.966;2024-02-04T01:15:09;6.17;82.90
65203;HTU21D;51788;45.124;38.966;2024-02-04T01:17:35;6.17;82.97
65203;HTU21D;51788;45.124;38.966;2024-02-04T01:20:01;6.14;83.06
65203;HTU21D;51788;45.124;38.966;2024-02-04T01:22:27;6.12;83.20
65203;HTU21D;51788;45.124;38.966;2024-02-04T01:24:53;6.09;83.40
65203;HTU21D;51788;45.124;38.966;2024-02-04T01:27:19;6.06;83.61
65203;HTU21D;51788;45.124;38.966;2024-02-04T01:29:45;5.97;83.81
65203;HTU21D;51788;45.124;38.966;2024-02-04T01:32:11;5.94;84.19
65203;HTU21D;51788;45.124;38.966;2024-02-04T01:34:37;5.90;84.42
65203;HTU21D;51788;45.124;38.966;2024-02-04T01:37:03;5.85;84.50
65203;HTU21D;51788;45.124;38.966;2024-02-04T01:39:29;5.82;84.59
65203;HTU21D;51788;45.124;38.966;2024-02-04T01:41:55;5.82;84.55
65203;HTU21D;51788;45.124;38.966;2024-02-04T01:44:21;5.78;84.61
65203;HTU21D;51788;45.124;38.966;2024-02-04T01:46:48;5.76;84.66
65203;HTU21D;51788;45.124;38.966;2024-02-04T01:49:14;5.77;84.69
65203;HTU21D;51788;45.124;38.966;2024-02-04T01:51:41;5.76;84.65
65203;HTU21D;51788;45.124;38.966;2024-02-04T01:54:07;5.77;84.60
65203;HTU21D;51788;45.124;38.966;2024-02-04T01:56:34;5.76;84.58
65203;HTU21D;51788;45.124;38.966;2024-02-04T01:59:01;5.79;84.52
65203;HTU21D;51788;45.124;38.966;2024-02-04T02:01:27;5.80;84.48
65203;HTU21D;51788;45.124;38.966;2024-02-04T02:03:53;5.83;84.42
65203;HTU21D;51788;45.124;38.966;2024-02-04T02:06:22;5.86;84.29
65203;HTU21D;51788;45.124;38.966;2024-02-04T02:08:48;5.89;84.20
65203;HTU21D;51788;45.124;38.966;2024-02-04T02:11:37;5.94;84.04
65203;HTU21D;51788;45.124;38.966;2024-02-04T02:14:08;6.00;83.74
65203;HTU21D;51788;45.124;38.966;2024-02-04T02:16:36;6.07;83.49
65203;HTU21D;51788;45.124;38.966;2024-02-04T02:19:40;6.14;83.20
65203;HTU21D;51788;45.124;38.966;2024-02-04T02:22:14;6.22;82.68
65203;HTU21D;51788;45.124;38.966;2024-02-04T02:24:43;6.27;82.22
65203;HTU21D;51788;45.124;38.966;2024-02-04T02:27:12;6.28;82.34
65203;HTU21D;51788;45.124;38.966;2024-02-04T02:29:38;6.33;82.09
65203;HTU21D;51788;45.124;38.966;2024-02-04T02:32:04;6.38;81.75
65203;HTU21D;51788;45.124;38.966;2024-02-04T02:34:30;6.40;81.46
65203;HTU21D;51788;45.124;38.966;2024-02-04T02:39:32;6.41;81.45
65203;HTU21D;51788;45.124;38.966;2024-02-04T02:42:03;6.42;81.42
65203;HTU21D;51788;45.124;38.966;2024-02-04T02:44:30;6.45;81.02
65203;HTU21D;51788;45.124;38.966;2024-02-04T02:46:57;6.45;80.88
65203;HTU21D;51788;45.124;38.966;2024-02-04T02:49:24;6.45;80.93
65203;HTU21D;51788;45.124;38.966;2024-02-04T02:51:50;6.49;80.62
65203;HTU21D;51788;45.124;38.966;2024-02-04T02:54:16;6.48;80.44
65203;HTU21D;51788;45.124;38.966;2024-02-04T02:56:42;6.48;80.60
65203;HTU21D;51788;45.124;38.966;2024-02-04T02:59:08;6.50;80.30
65203;HTU21D;51788;45.124;38.966;2024-02-04T03:01:34;6.52;80.13
65203;HTU21D;51788;45.124;38.966;2024-02-04T03:04:00;6.48;80.47
65203;HTU21D;51788;45.124;38.966;2024-02-04T03:06:25;6.51;80.29
65203;HTU21D;51788;45.124;38.966;2024-02-04T03:08:51;6.50;80.47
65203;HTU21D;51788;45.124;38.966;2024-02-04T03:11:17;6.43;80.73
65203;HTU21D;51788;45.124;38.966;2024-02-04T03:13:43;6.37;81.08
65203;HTU21D;51788;45.124;38.966;2024-02-04T03:16:13;6.34;81.37
65203;HTU21D;51788;45.124;38.966;2024-02-04T03:18:40;6.37;81.41
65203;HTU21D;51788;45.124;38.966;2024-02-04T03:21:16;6.33;81.59
65203;HTU21D;51788;45.124;38.966;2024-02-04T03:23:43;6.35;81.57
65203;HTU21D;51788;45.124;38.966;2024-02-04T03:26:10;6.34;81.65
65203;HTU21D;51788;45.124;38.966;2024-02-04T03:28:37;6.36;81.63
65203;HTU21D;51788;45.124;38.966;2024-02-04T03:31:04;6.35;81.59
65203;HTU21D;51788;45.124;38.966;2024-02-04T03:33:30;6.35;81.75
65203;HTU21D;51788;45.124;38.966;2024-02-04T03:35:56;6.35;81.79
65203;HTU21D;51788;45.124;38.966;2024-02-04T03:38:22;6.33;81.90
65203;HTU21D;51788;45.124;38.966;2024-02-04T03:40:48;6.36;81.87
65203;HTU21D;51788;45.124;38.966;2024-02-04T03:43:15;6.44;81.57
65203;HTU21D;51788;45.124;38.966;2024-02-04T03:45:41;6.48;81.46
65203;HTU21D;51788;45.124;38.966;2024-02-04T03:48:07;6.46;81.48
65203;HTU21D;51788;45.124;38.966;2024-02-04T03:50:33;6.51;81.43
65203;HTU21D;51788;45.124;38.966;2024-02-04T03:53:01;6.52;81.36
65203;HTU21D;51788;45.124;38.966;2024-02-04T03:55:27;6.56;81.30
65203;HTU21D;51788;45.124;38.966;2024-02-04T03:57:54;6.56;81.32
65203;HTU21D;51788;45.124;38.966;2024-02-04T04:00:20;6.53;81.54
65203;HTU21D;51788;45.124;38.966;2024-02-04T04:02:46;6.51;81.80
65203;HTU21D;51788;45.124;38.966;2024-02-04T04:05:12;6.50;82.01
65203;HTU21D;51788;45.124;38.966;2024-02-04T04:07:39;6.46;82.14
65203;HTU21D;51788;45.124;38.966;2024-02-04T04:10:06;6.45;82.29
65203;HTU21D;51788;45.124;38.966;2024-02-04T04:12:32;6.45;82.48
65203;HTU21D;51788;45.124;38.966;2024-02-04T04:14:58;6.43;82.52
65203;HTU21D;51788;45.124;38.966;2024-02-04T04:17:24;6.46;82.56
65203;HTU21D;51788;45.124;38.966;2024-02-04T04:19:50;6.44;82.65
65203;HTU21D;51788;45.124;38.966;2024-02-04T04:22:16;6.42;82.75
65203;HTU21D;51788;45.124;38.966;2024-02-04T04:24:42;6.41;82.84
65203;HTU21D;51788;45.124;38.966;2024-02-04T04:27:09;6.42;83.09
65203;HTU21D;51788;45.124;38.966;2024-02-04T04:29:35;6.46;83.17
65203;HTU21D;51788;45.124;38.966;2024-02-04T04:32:00;6.45;83.13
65203;HTU21D;51788;45.124;38.966;2024-02-04T04:34:26;6.48;83.04
65203;HTU21D;51788;45.124;38.966;2024-02-04T04:36:52;6.46;83.00
65203;HTU21D;51788;45.124;38.966;2024-02-04T04:39:18;6.46;83.06
65203;HTU21D;51788;45.124;38.966;2024-02-04T04:41:44;6.45;83.10
65203;HTU21D;51788;45.124;38.966;2024-02-04T04:44:11;6.49;82.97
65203;HTU21D;51788;45.124;38.966;2024-02-04T04:46:40;6.54;82.74
65203;HTU21D;51788;45.124;38.966;2024-02-04T04:49:06;6.58;82.64
65203;HTU21D;51788;45.124;38.966;2024-02-04T04:51:32;6.63;82.52
65203;HTU21D;51788;45.124;38.966;2024-02-04T04:53:58;6.68;82.26
65203;HTU21D;51788;45.124;38.966;2024-02-04T04:56:24;6.69;82.26
65203;HTU21D;51788;45.124;38.966;2024-02-04T04:58:50;6.73;82.13
65203;HTU21D;51788;45.124;38.966;2024-02-04T05:01:16;6.76;82.26
65203;HTU21D;51788;45.124;38.966;2024-02-04T05:03:43;6.73;82.44
65203;HTU21D;51788;45.124;38.966;2024-02-04T05:06:09;6.70;82.66
65203;HTU21D;51788;45.124;38.966;2024-02-04T05:08:34;6.67;82.85
65203;HTU21D;51788;45.124;38.966;2024-02-04T05:11:00;6.60;83.18
65203;HTU21D;51788;45.124;38.966;2024-02-04T05:13:26;6.56;83.45
65203;HTU21D;51788;45.124;38.966;2024-02-04T05:15:52;6.50;83.68
65203;HTU21D;51788;45.124;38.966;2024-02-04T05:18:18;6.45;83.91
65203;HTU21D;51788;45.124;38.966;2024-02-04T05:20:44;6.42;84.16
65203;HTU21D;51788;45.124;38.966;2024-02-04T05:23:10;6.41;84.45
65203;HTU21D;51788;45.124;38.966;2024-02-04T05:25:36;6.39;84.71
65203;HTU21D;51788;45.124;38.966;2024-02-04T05:28:02;6.36;84.81
65203;HTU21D;51788;45.124;38.966;2024-02-04T05:30:28;6.30;84.86
65203;HTU21D;51788;45.124;38.966;2024-02-04T05:32:54;6.33;85.00
65203;HTU21D;51788;45.124;38.966;2024-02-04T05:35:20;6.33;85.04
65203;HTU21D;51788;45.124;38.966;2024-02-04T05:37:46;6.34;85.06
65203;HTU21D;51788;45.124;38.966;2024-02-04T05:40:12;6.31;85.06
65203;HTU21D;51788;45.124;38.966;2024-02-04T05:42:39;6.35;85.22
65203;HTU21D;51788;45.124;38.966;2024-02-04T05:45:05;6.33;85.25
65203;HTU21D;51788;45.124;38.966;2024-02-04T05:47:32;6.34;85.42
65203;HTU21D;51788;45.124;38.966;2024-02-04T05:49:58;6.28;85.48
65203;HTU21D;51788;45.124;38.966;2024-02-04T05:52:24;6.30;85.67
65203;HTU21D;51788;45.124;38.966;2024-02-04T05:54:50;6.28;85.78
65203;HTU21D;51788;45.124;38.966;2024-02-04T05:57:16;6.29;85.91
65203;HTU21D;51788;45.124;38.966;2024-02-04T05:59:42;6.30;85.98
65203;HTU21D;51788;45.124;38.966;2024-02-04T06:02:07;6.29;85.92
65203;HTU21D;51788;45.124;38.966;2024-02-04T06:04:33;6.33;85.94
65203;HTU21D;51788;45.124;38.966;2024-02-04T06:07:02;6.33;85.88
65203;HTU21D;51788;45.124;38.966;2024-02-04T06:09:28;6.37;85.83
65203;HTU21D;51788;45.124;38.966;2024-02-04T06:11:54;6.36;85.80
65203;HTU21D;51788;45.124;38.966;2024-02-04T06:14:20;6.37;85.83
65203;HTU21D;51788;45.124;38.966;2024-02-04T06:16:46;6.41;85.80
65203;HTU21D;51788;45.124;38.966;2024-02-04T06:19:12;6.42;85.66
65203;HTU21D;51788;45.124;38.966;2024-02-04T06:21:40;6.42;85.67
65203;HTU21D;51788;45.124;38.966;2024-02-04T06:24:06;6.45;85.71
65203;HTU21D;51788;45.124;38.966;2024-02-04T06:26:32;6.46;85.75
65203;HTU21D;51788;45.124;38.966;2024-02-04T06:28:58;6.44;85.81
65203;HTU21D;51788;45.124;38.966;2024-02-04T06:31:24;6.43;86.12
65203;HTU21D;51788;45.124;38.966;2024-02-04T06:33:50;6.40;86.29
65203;HTU21D;51788;45.124;38.966;2024-02-04T06:36:17;6.41;86.61
65203;HTU21D;51788;45.124;38.966;2024-02-04T06:38:43;6.39;86.58
65203;HTU21D;51788;45.124;38.966;2024-02-04T06:41:09;6.39;86.82
65203;HTU21D;51788;45.124;38.966;2024-02-04T06:43:37;6.38;86.98
65203;HTU21D;51788;45.124;38.966;2024-02-04T06:46:03;6.36;86.96
65203;HTU21D;51788;45.124;38.966;2024-02-04T06:48:29;6.35;87.10
65203;HTU21D;51788;45.124;38.966;2024-02-04T06:50:55;6.34;87.19
65203;HTU21D;51788;45.124;38.966;2024-02-04T06:53:21;6.35;87.66
65203;HTU21D;51788;45.124;38.966;2024-02-04T06:55:47;6.34;88.09
65203;HTU21D;51788;45.124;38.966;2024-02-04T06:58:13;6.31;88.00
65203;HTU21D;51788;45.124;38.966;2024-02-04T07:00:39;6.29;88.11
65203;HTU21D;51788;45.124;38.966;2024-02-04T07:03:05;6.31;88.12
65203;HTU21D;51788;45.124;38.966;2024-02-04T07:05:31;6.33;88.20
65203;HTU21D;51788;45.124;38.966;2024-02-04T07:07:59;6.36;88.09
65203;HTU21D;51788;45.124;38.966;2024-02-04T07:10:25;6.37;88.07
65203;HTU21D;51788;45.124;38.966;2024-02-04T07:12:51;6.41;88.11
65203;HTU21D;51788;45.124;38.966;2024-02-04T07:15:17;6.48;88.28
65203;HTU21D;51788;45.124;38.966;2024-02-04T07:17:43;6.50;88.38
65203;HTU21D;51788;45.124;38.966;2024-02-04T07:20:09;6.52;88.67
65203;HTU21D;51788;45.124;38.966;2024-02-04T07:22:35;6.52;88.68
65203;HTU21D;51788;45.124;38.966;2024-02-04T07:25:01;6.54;88.80
65203;HTU21D;51788;45.124;38.966;2024-02-04T07:27:29;6.54;89.05
65203;HTU21D;51788;45.124;38.966;2024-02-04T07:29:55;6.50;88.98
65203;HTU21D;51788;45.124;38.966;2024-02-04T07:32:21;6.58;89.46
65203;HTU21D;51788;45.124;38.966;2024-02-04T07:34:48;6.57;89.44
65203;HTU21D;51788;45.124;38.966;2024-02-04T07:37:14;6.60;89.28
65203;HTU21D;51788;45.124;38.966;2024-02-04T07:39:43;6.64;89.47
65203;HTU21D;51788;45.124;38.966;2024-02-04T07:42:09;6.65;89.44
65203;HTU21D;51788;45.124;38.966;2024-02-04T07:44:34;6.72;89.78
65203;HTU21D;51788;45.124;38.966;2024-02-04T07:47:00;6.73;89.74
65203;HTU21D;51788;45.124;38.966;2024-02-04T07:49:26;6.78;90.03
65203;HTU21D;51788;45.124;38.966;2024-02-04T07:51:52;6.84;90.02
65203;HTU21D;51788;45.124;38.966;2024-02-04T07:54:18;6.89;90.02
65203;HTU21D;51788;45.124;38.966;2024-02-04T07:56:44;6.93;90.40
65203;HTU21D;51788;45.124;38.966;2024-02-04T07:59:10;6.90;90.54
65203;HTU21D;51788;45.124;38.966;2024-02-04T08:01:36;6.94;90.78
65203;HTU21D;51788;45.124;38.966;2024-02-04T08:04:02;6.95;90.83
65203;HTU21D;51788;45.124;38.966;2024-02-04T08:06:28;6.93;90.69
65203;HTU21D;51788;45.124;38.966;2024-02-04T08:08:54;6.90;90.59
65203;HTU21D;51788;45.124;38.966;2024-02-04T08:11:20;6.91;90.57
65203;HTU21D;51788;45.124;38.966;2024-02-04T08:13:47;6.93;90.79
65203;HTU21D;51788;45.124;38.966;2024-02-04T08:16:12;6.94;91.08
65203;HTU21D;51788;45.124;38.966;2024-02-04T08:18:39;6.93;91.13
65203;HTU21D;51788;45.124;38.966;2024-02-04T08:21:05;7.01;91.55
65203;HTU21D;51788;45.124;38.966;2024-02-04T08:23:31;7.11;91.79
65203;HTU21D;51788;45.124;38.966;2024-02-04T08:25:57;7.19;92.11
65203;HTU21D;51788;45.124;38.966;2024-02-04T08:28:24;7.22;92.17
65203;HTU21D;51788;45.124;38.966;2024-02-04T08:30:50;7.23;92.34
65203;HTU21D;51788;45.124;38.966;2024-02-04T08:33:16;7.25;92.25
65203;HTU21D;51788;45.124;38.966;2024-02-04T08:35:43;7.31;92.17
65203;HTU21D;51788;45.124;38.966;2024-02-04T08:38:09;7.37;92.18
65203;HTU21D;51788;45.124;38.966;2024-02-04T08:40:35;7.35;91.89
65203;HTU21D;51788;45.124;38.966;2024-02-04T08:43:01;7.31;91.99
65203;HTU21D;51788;45.124;38.966;2024-02-04T08:45:27;7.27;92.07
65203;HTU21D;51788;45.124;38.966;2024-02-04T08:47:52;7.27;92.14
65203;HTU21D;51788;45.124;38.966;2024-02-04T08:50:19;7.33;92.35
65203;HTU21D;51788;45.124;38.966;2024-02-04T08:52:45;7.35;92.83
65203;HTU21D;51788;45.124;38.966;2024-02-04T08:55:11;7.41;93.36
65203;HTU21D;51788;45.124;38.966;2024-02-04T08:57:37;7.41;93.03
65203;HTU21D;51788;45.124;38.966;2024-02-04T09:00:03;7.41;92.77
65203;HTU21D;51788;45.124;38.966;2024-02-04T09:02:30;7.46;92.51
65203;HTU21D;51788;45.124;38.966;2024-02-04T09:04:55;7.55;92.28
65203;HTU21D;51788;45.124;38.966;2024-02-04T09:07:21;7.58;92.04
65203;HTU21D;51788;45.124;38.966;2024-02-04T09:09:47;7.60;91.99
65203;HTU21D;51788;45.124;38.966;2024-02-04T09:12:14;7.65;91.96
65203;HTU21D;51788;45.124;38.966;2024-02-04T09:14:40;7.65;91.72
65203;HTU21D;51788;45.124;38.966;2024-02-04T09:17:06;7.70;91.38
65203;HTU21D;51788;45.124;38.966;2024-02-04T09:19:32;7.71;91.24
65203;HTU21D;51788;45.124;38.966;2024-02-04T09:21:58;7.78;91.07
65203;HTU21D;51788;45.124;38.966;2024-02-04T09:24:27;7.86;90.81
65203;HTU21D;51788;45.124;38.966;2024-02-04T09:26:53;7.92;90.50
65203;HTU21D;51788;45.124;38.966;2024-02-04T09:29:20;7.97;90.22
65203;HTU21D;51788;45.124;38.966;2024-02-04T09:31:45;7.99;90.09
65203;HTU21D;51788;45.124;38.966;2024-02-04T09:34:12;8.00;89.74
65203;HTU21D;51788;45.124;38.966;2024-02-04T09:36:37;8.02;89.56
65203;HTU21D;51788;45.124;38.966;2024-02-04T09:39:03;8.03;88.93
65203;HTU21D;51788;45.124;38.966;2024-02-04T09:41:30;8.03;89.06
65203;HTU21D;51788;45.124;38.966;2024-02-04T09:43:56;8.05;89.27
65203;HTU21D;51788;45.124;38.966;2024-02-04T09:46:23;8.12;88.87
65203;HTU21D;51788;45.124;38.966;2024-02-04T09:48:49;8.13;88.86
65203;HTU21D;51788;45.124;38.966;2024-02-04T09:51:16;8.15;88.15
65203;HTU21D;51788;45.124;38.966;2024-02-04T09:53:44;8.17;87.66
65203;HTU21D;51788;45.124;38.966;2024-02-04T09:56:12;8.14;87.39
65203;HTU21D;51788;45.124;38.966;2024-02-04T09:58:38;8.14;86.90
65203;HTU21D;51788;45.124;38.966;2024-02-04T10:01:04;8.12;87.51
65203;HTU21D;51788;45.124;38.966;2024-02-04T10:03:31;8.20;86.97
65203;HTU21D;51788;45.124;38.966;2024-02-04T10:05:57;8.26;87.19
65203;HTU21D;51788;45.124;38.966;2024-02-04T10:08:23;8.33;86.92
65203;HTU21D;51788;45.124;38.966;2024-02-04T10:10:50;8.39;86.61
65203;HTU21D;51788;45.124;38.966;2024-02-04T10:13:16;8.41;86.83
65203;HTU21D;51788;45.124;38.966;2024-02-04T10:15:42;8.46;86.67
65203;HTU21D;51788;45.124;38.966;2024-02-04T10:18:08;8.47;86.54
65203;HTU21D;51788;45.124;38.966;2024-02-04T10:20:35;8.43;86.67
65203;HTU21D;51788;45.124;38.966;2024-02-04T10:23:01;8.48;86.78
65203;HTU21D;51788;45.124;38.966;2024-02-04T10:25:27;8.55;86.58
65203;HTU21D;51788;45.124;38.966;2024-02-04T10:27:54;8.60;86.68
65203;HTU21D;51788;45.124;38.966;2024-02-04T10:30:20;8.67;86.65
65203;HTU21D;51788;45.124;38.966;2024-02-04T10:32:50;8.73;86.64
65203;HTU21D;51788;45.124;38.966;2024-02-04T10:35:16;8.77;86.70
65203;HTU21D;51788;45.124;38.966;2024-02-04T10:37:45;8.82;86.58
65203;HTU21D;51788;45.124;38.966;2024-02-04T10:40:12;8.91;86.79
65203;HTU21D;51788;45.124;38.966;2024-02-04T10:42:38;9.10;86.71
65203;HTU21D;51788;45.124;38.966;2024-02-04T10:45:08;9.29;86.29
65203;HTU21D;51788;45.124;38.966;2024-02-04T10:47:37;9.39;86.03
65203;HTU21D;51788;45.124;38.966;2024-02-04T10:50:04;9.38;85.08
65203;HTU21D;51788;45.124;38.966;2024-02-04T10:52:40;9.31;84.74
65203;HTU21D;51788;45.124;38.966;2024-02-04T10:55:11;9.25;84.29
65203;HTU21D;51788;45.124;38.966;2024-02-04T10:57:38;9.19;83.94
65203;HTU21D;51788;45.124;38.966;2024-02-04T11:00:06;9.22;83.39
65203;HTU21D;51788;45.124;38.966;2024-02-04T11:02:37;9.20;83.45
65203;HTU21D;51788;45.124;38.966;2024-02-04T11:05:05;9.26;83.42
65203;HTU21D;51788;45.124;38.966;2024-02-04T11:07:34;9.27;82.99
65203;HTU21D;51788;45.124;38.966;2024-02-04T11:10:03;9.33;81.80
65203;HTU21D;51788;45.124;38.966;2024-02-04T11:12:32;9.31;81.95
65203;HTU21D;51788;45.124;38.966;2024-02-04T11:15:02;9.22;82.64
65203;HTU21D;51788;45.124;38.966;2024-02-04T11:20:30;9.22;82.88
65203;HTU21D;51788;45.124;38.966;2024-02-04T11:25:49;9.31;83.30
65203;HTU21D;51788;45.124;38.966;2024-02-04T11:28:17;9.35;83.10
65203;HTU21D;51788;45.124;38.966;2024-02-04T11:30:45;9.36;83.13
65203;HTU21D;51788;45.124;38.966;2024-02-04T11:33:12;9.37;83.29
65203;HTU21D;51788;45.124;38.966;2024-02-04T11:35:39;9.39;82.82
65203;HTU21D;51788;45.124;38.966;2024-02-04T11:38:05;9.35;83.16
65203;HTU21D;51788;45.124;38.966;2024-02-04T11:40:34;9.35;83.41
65203;HTU21D;51788;45.124;38.966;2024-02-04T11:43:14;9.39;83.55
65203;HTU21D;51788;45.124;38.966;2024-02-04T11:45:41;9.49;82.93
65203;HTU21D;51788;45.124;38.966;2024-02-04T11:48:09;9.47;83.13
65203;HTU21D;51788;45.124;38.966;2024-02-04T11:50:36;9.56;82.81
65203;HTU21D;51788;45.124;38.966;2024-02-04T11:53:10;9.62;82.61
65203;HTU21D;51788;45.124;38.966;2024-02-04T11:55:39;9.68;82.31
65203;HTU21D;51788;45.124;38.966;2024-02-04T11:58:06;9.69;82.30
65203;HTU21D;51788;45.124;38.966;2024-02-04T12:00:33;9.72;82.26
65203;HTU21D;51788;45.124;38.966;2024-02-04T12:03:03;9.75;82.13
65203;HTU21D;51788;45.124;38.966;2024-02-04T12:05:34;9.77;82.10
65203;HTU21D;51788;45.124;38.966;2024-02-04T12:08:04;9.78;81.72
65203;HTU21D;51788;45.124;38.966;2024-02-04T12:10:31;9.75;81.82
65203;HTU21D;51788;45.124;38.966;2024-02-04T12:13:06;9.75;81.80
65203;HTU21D;51788;45.124;38.966;2024-02-04T12:15:35;9.74;81.42
65203;HTU21D;51788;45.124;38.966;2024-02-04T12:18:08;9.68;81.62
65203;HTU21D;51788;45.124;38.966;2024-02-04T12:20:35;9.68;81.29
65203;HTU21D;51788;45.124;38.966;2024-02-04T12:23:05;9.65;81.34
65203;HTU21D;51788;45.124;38.966;2024-02-04T12:25:35;9.66;81.15
65203;HTU21D;51788;45.124;38.966;2024-02-04T12:28:02;9.65;81.03
65203;HTU21D;51788;45.124;38.966;2024-02-04T12:30:29;9.63;81.28
65203;HTU21D;51788;45.124;38.966;2024-02-04T12:32:59;9.64;81.38
65203;HTU21D;51788;45.124;38.966;2024-02-04T12:35:26;9.57;81.77
65203;HTU21D;51788;45.124;38.966;2024-02-04T12:37:54;9.53;82.04
65203;HTU21D;51788;45.124;38.966;2024-02-04T12:40:28;9.52;82.21
65203;HTU21D;51788;45.124;38.966;2024-02-04T12:42:59;9.49;82.46
65203;HTU21D;51788;45.124;38.966;2024-02-04T12:45:27;9.49;82.62
65203;HTU21D;51788;45.124;38.966;2024-02-04T12:47:54;9.44;82.65
65203;HTU21D;51788;45.124;38.966;2024-02-04T12:50:21;9.44;82.87
65203;HTU21D;51788;45.124;38.966;2024-02-04T12:53:01;9.44;82.95
65203;HTU21D;51788;45.124;38.966;2024-02-04T12:55:27;9.46;82.92
65203;HTU21D;51788;45.124;38.966;2024-02-04T13:00:29;9.41;82.99
65203;HTU21D;51788;45.124;38.966;2024-02-04T13:02:56;9.40;83.14
65203;HTU21D;51788;45.124;38.966;2024-02-04T13:05:23;9.44;83.23
65203;HTU21D;51788;45.124;38.966;2024-02-04T13:07:56;9.47;83.24
65203;HTU21D;51788;45.124;38.966;2024-02-04T13:10:25;9.48;83.24
65203;HTU21D;51788;45.124;38.966;2024-02-04T13:13:01;9.51;83.07
65203;HTU21D;51788;45.124;38.966;2024-02-04T13:15:31;9.54;83.04
65203;HTU21D;51788;45.124;38.966;2024-02-04T13:17:58;9.56;82.87
65203;HTU21D;51788;45.124;38.966;2024-02-04T13:20:25;9.60;82.11
65203;HTU21D;51788;45.124;38.966;2024-02-04T13:22:51;9.60;81.68
65203;HTU21D;51788;45.124;38.966;2024-02-04T13:25:20;9.59;81.35
65203;HTU21D;51788;45.124;38.966;2024-02-04T13:27:51;9.55;81.06
65203;HTU21D;51788;45.124;38.966;2024-02-04T13:30:18;9.52;81.29
65203;HTU21D;51788;45.124;38.966;2024-02-04T13:32:45;9.50;81.33
65203;HTU21D;51788;45.124;38.966;2024-02-04T13:35:11;9.50;81.13
65203;HTU21D;51788;45.124;38.966;2024-02-04T13:37:42;9.50;81.26
65203;HTU21D;51788;45.124;38.966;2024-02-04T13:40:14;9.48;81.43
65203;HTU21D;51788;45.124;38.966;2024-02-04T13:42:41;9.48;81.55
65203;HTU21D;51788;45.124;38.966;2024-02-04T13:45:08;9.47;81.75
65203;HTU21D;51788;45.124;38.966;2024-02-04T13:47:36;9.47;82.09
65203;HTU21D;51788;45.124;38.966;2024-02-04T13:50:03;9.48;82.39
65203;HTU21D;51788;45.124;38.966;2024-02-04T13:52:29;9.48;82.58
65203;HTU21D;51788;45.124;38.966;2024-02-04T13:54:55;9.48;82.84
65203;HTU21D;51788;45.124;38.966;2024-02-04T13:57:21;9.46;82.98
65203;HTU21D;51788;45.124;38.966;2024-02-04T13:59:48;9.44;83.07
65203;HTU21D;51788;45.124;38.966;2024-02-04T14:02:14;9.41;83.16
65203;HTU21D;51788;45.124;38.966;2024-02-04T14:04:40;9.39;83.24
65203;HTU21D;51788;45.124;38.966;2024-02-04T14:07:06;9.38;83.33
65203;HTU21D;51788;45.124;38.966;2024-02-04T14:09:32;9.36;83.42
65203;HTU21D;51788;45.124;38.966;2024-02-04T14:11:58;9.39;83.37
65203;HTU21D;51788;45.124;38.966;2024-02-04T14:14:25;9.39;83.35
65203;HTU21D;51788;45.124;38.966;2024-02-04T14:16:53;9.35;83.44
65203;HTU21D;51788;45.124;38.966;2024-02-04T14:19:22;9.34;83.52
65203;HTU21D;51788;45.124;38.966;2024-02-04T14:21:48;9.34;83.59
65203;HTU21D;51788;45.124;38.966;2024-02-04T14:24:14;9.32;83.61
65203;HTU21D;51788;45.124;38.966;2024-02-04T14:26:40;9.31;83.67
65203;HTU21D;51788;45.124;38.966;2024-02-04T14:29:06;9.31;83.73
65203;HTU21D;51788;45.124;38.966;2024-02-04T14:31:33;9.29;83.82
65203;HTU21D;51788;45.124;38.966;2024-02-04T14:33:59;9.27;83.90
65203;HTU21D;51788;45.124;38.966;2024-02-04T14:36:25;9.26;83.97
65203;HTU21D;51788;45.124;38.966;2024-02-04T14:38:53;9.24;84.07
65203;HTU21D;51788;45.124;38.966;2024-02-04T14:41:19;9.22;84.15
65203;HTU21D;51788;45.124;38.966;2024-02-04T14:43:45;9.20;84.23
65203;HTU21D;51788;45.124;38.966;2024-02-04T14:46:11;9.19;84.28
65203;HTU21D;51788;45.124;38.966;2024-02-04T14:48:37;9.19;84.32
65203;HTU21D;51788;45.124;38.966;2024-02-04T14:51:03;9.19;84.35
65203;HTU21D;51788;45.124;38.966;2024-02-04T14:53:29;9.19;84.38
65203;HTU21D;51788;45.124;38.966;2024-02-04T14:55:55;9.19;84.38
65203;HTU21D;51788;45.124;38.966;2024-02-04T14:58:22;9.18;84.39
65203;HTU21D;51788;45.124;38.966;2024-02-04T15:00:48;9.19;84.44
65203;HTU21D;51788;45.124;38.966;2024-02-04T15:03:14;9.18;84.40
65203;HTU21D;51788;45.124;38.966;2024-02-04T15:05:41;9.18;84.41
65203;HTU21D;51788;45.124;38.966;2024-02-04T15:08:07;9.18;84.38
65203;HTU21D;51788;45.124;38.966;2024-02-04T15:10:34;9.16;84.36
65203;HTU21D;51788;45.124;38.966;2024-02-04T15:13:00;9.14;84.39
65203;HTU21D;51788;45.124;38.966;2024-02-04T15:15:26;9.12;84.46
65203;HTU21D;51788;45.124;38.966;2024-02-04T15:17:53;9.14;84.48
65203;HTU21D;51788;45.124;38.966;2024-02-04T15:20:19;9.17;84.36
65203;HTU21D;51788;45.124;38.966;2024-02-04T15:22:46;9.15;84.40
65203;HTU21D;51788;45.124;38.966;2024-02-04T15:25:13;9.15;84.35